Time;durP1;ratioP1;P1;durP2;ratioP2;P2;SDS_P1;SDS_P2;PMS_P1;PMS_P2;Temp;Humidity;BMP_temperature;BMP_pressure;BME280_temperature;BME280_humidity;BME280_pressure;Samples;Min_cycle;Max_cycle;Signal;HPM_P1;HPM_P2
2021/11/24 00:04:25;;;;;;;0.82;0.80;;;20.40;26.00;20.80;94377.00;;;;10294653;28;47223;-67
2021/11/24 00:09:26;;;;;;;0.75;0.60;;;20.40;26.10;20.80;94373.00;;;;10294030;28;47331;-68
2021/11/24 00:14:26;;;;;;;1.40;0.75;;;20.40;26.00;20.70;94363.00;;;;10294062;28;48286;-67
2021/11/24 00:19:27;;;;;;;0.70;0.70;;;20.40;26.10;20.70;94364.00;;;;10294197;28;45340;-68
2021/11/24 00:24:27;;;;;;;1.20;0.82;;;20.30;25.90;20.70;94365.00;;;;10294344;28;47091;-65
2021/11/24 00:29:28;;;;;;;0.82;0.77;;;20.40;26.20;20.70;94366.00;;;;10293787;28;45643;-66
2021/11/24 00:34:29;;;;;;;0.88;0.70;;;20.40;26.10;20.70;94350.00;;;;10293898;28;48681;-66
2021/11/24 00:39:29;;;;;;;0.70;0.70;;;20.30;26.10;20.70;94350.00;;;;10292990;28;47241;-65
2021/11/24 00:44:30;;;;;;;1.52;0.82;;;20.40;26.10;20.70;94354.00;;;;10298032;28;48643;-66
2021/11/24 00:49:31;;;;;;;0.70;0.70;;;20.30;26.20;20.70;94363.00;;;;10299777;28;47566;-66
2021/11/24 00:54:32;;;;;;;1.08;0.80;;;20.30;26.10;20.70;94357.00;;;;10300754;28;47025;-65
2021/11/24 00:59:33;;;;;;;1.00;0.90;;;20.30;26.00;20.70;94337.00;;;;10300191;28;45554;-66
2021/11/24 01:04:34;;;;;;;1.05;0.80;;;20.30;25.90;20.70;94351.00;;;;10283845;28;47250;-66
2021/11/24 01:09:34;;;;;;;1.20;0.70;;;20.30;26.10;20.70;94345.00;;;;10283340;28;47624;-65
2021/11/24 01:14:35;;;;;;;0.90;0.75;;;20.30;26.00;20.70;94347.00;;;;10300041;28;45531;-65
2021/11/24 01:19:36;;;;;;;1.10;0.63;;;20.30;25.80;20.70;94354.00;;;;10299086;28;47204;-65
2021/11/24 01:24:36;;;;;;;0.90;0.80;;;20.30;26.10;20.70;94339.00;;;;10299628;28;46412;-66
2021/11/24 01:29:37;;;;;;;1.23;0.88;;;20.30;26.00;20.70;94337.00;;;;10298957;28;46922;-66
2021/11/24 01:34:38;;;;;;;0.95;0.80;;;20.30;26.10;20.60;94342.00;;;;10300792;28;48665;-66
2021/11/24 01:39:39;;;;;;;0.70;0.70;;;20.30;25.80;20.70;94335.00;;;;10300519;28;47095;-66
2021/11/24 01:44:39;;;;;;;0.90;0.80;;;20.30;25.90;20.60;94344.00;;;;10298536;28;47376;-67
2021/11/24 01:49:40;;;;;;;0.80;0.77;;;20.20;25.70;20.70;94333.00;;;;10297792;28;46900;-67
2021/11/24 01:54:41;;;;;;;0.90;0.70;;;20.20;25.70;20.60;94341.00;;;;10281134;28;47204;-67
2021/11/24 01:59:45;;;;;;;0.98;0.80;;;20.30;26.00;20.70;94336.00;;;;10295890;28;45217;-67
2021/11/24 02:04:45;;;;;;;1.00;0.75;;;20.30;26.10;20.60;94330.00;;;;10295500;28;45453;-68
2021/11/24 02:09:47;;;;;;;1.23;0.88;;;20.20;26.00;20.60;94325.00;;;;10315013;28;45266;-67
2021/11/24 02:14:48;;;;;;;0.93;0.80;;;20.20;26.10;20.50;94312.00;;;;10297830;28;46714;-67
2021/11/24 02:19:48;;;;;;;1.50;0.80;;;20.20;25.80;20.60;94291.00;;;;10281040;28;48290;-67
2021/11/24 02:24:50;;;;;;;1.40;0.90;;;20.20;25.90;20.60;94310.00;;;;10281787;23;46894;-62
2021/11/24 02:29:50;;;;;;;0.60;0.60;;;20.20;25.80;20.60;94305.00;;;;10248394;28;47186;-63
2021/11/24 02:34:51;;;;;;;1.00;0.77;;;20.20;26.00;20.60;94298.00;;;;10261802;28;47102;-65
2021/11/24 02:39:52;;;;;;;1.10;1.00;;;20.30;26.00;20.60;94297.00;;;;10255450;28;47359;-64
2021/11/24 02:44:52;;;;;;;1.00;0.85;;;20.20;25.80;20.60;94287.00;;;;10271391;28;45479;-64
2021/11/24 02:49:55;;;;;;;1.02;0.70;;;20.20;26.00;20.60;94294.00;;;;10250194;28;45134;-63
2021/11/24 02:55:02;;;;;;;0.77;0.77;;;20.20;26.10;20.70;94291.00;;;;10231543;28;46917;-64
2021/11/24 03:00:20;;;;;;;0.77;0.70;;;20.20;26.10;20.60;94287.00;;;;10233254;28;47418;-63
2021/11/24 03:05:26;;;;;;;0.82;0.80;;;20.20;26.10;20.60;94280.00;;;;10230499;28;47406;-64
2021/11/24 03:10:27;;;;;;;0.80;0.60;;;20.20;25.90;20.60;94259.00;;;;10231916;28;48471;-65
2021/11/24 03:15:29;;;;;;;0.90;0.70;;;20.20;26.00;20.60;94265.00;;;;10231797;28;47107;-63
2021/11/24 03:20:30;;;;;;;0.70;0.70;;;20.20;26.00;20.60;94260.00;;;;10231529;28;46309;-62
2021/11/24 03:25:30;;;;;;;1.00;0.90;;;20.20;26.10;20.60;94268.00;;;;10232350;28;46576;-60
2021/11/24 03:30:33;;;;;;;0.90;0.85;;;20.30;26.10;20.60;94255.00;;;;10231044;28;47162;-61
2021/11/24 03:35:35;;;;;;;1.40;0.80;;;20.20;26.00;20.60;94259.00;;;;10230381;28;45314;-62
2021/11/24 03:40:36;;;;;;;1.17;0.73;;;20.20;26.10;20.60;94252.00;;;;10230862;28;45586;-61
2021/11/24 03:45:37;;;;;;;0.93;0.82;;;20.20;26.20;20.60;94243.00;;;;10230343;28;46887;-60
2021/11/24 03:50:38;;;;;;;1.25;0.85;;;20.20;26.00;20.60;94246.00;;;;10259251;28;45644;-61
2021/11/24 03:55:39;;;;;;;0.80;0.80;;;20.20;26.10;20.60;94243.00;;;;10270371;28;48069;-61
2021/11/24 04:00:40;;;;;;;1.48;0.90;;;20.20;26.10;20.60;94222.00;;;;10269929;28;47433;-60
2021/11/24 04:05:41;;;;;;;0.70;0.65;;;20.20;26.20;20.60;94221.00;;;;10269472;28;46107;-62
2021/11/24 04:10:42;;;;;;;1.50;0.73;;;20.20;26.10;20.60;94217.00;;;;10269915;28;45419;-63
2021/11/24 04:15:42;;;;;;;0.93;0.82;;;20.20;26.20;20.60;94222.00;;;;10270647;28;45433;-61
2021/11/24 04:20:43;;;;;;;1.20;0.70;;;20.20;26.10;20.60;94214.00;;;;10269074;28;46901;-62
2021/11/24 04:25:44;;;;;;;1.30;0.80;;;20.20;26.10;20.60;94213.00;;;;10269127;28;46094;-62
2021/11/24 04:30:44;;;;;;;0.80;0.80;;;20.20;26.10;20.60;94211.00;;;;10259703;28;46734;-62
2021/11/24 04:35:45;;;;;;;0.95;0.85;;;20.20;26.10;20.60;94196.00;;;;10228398;28;46885;-62
2021/11/24 04:40:46;;;;;;;1.08;0.80;;;20.20;26.10;20.60;94196.00;;;;10228846;28;46911;-64
2021/11/24 04:45:48;;;;;;;1.10;0.90;;;20.10;26.10;20.60;94202.00;;;;10228609;28;47257;-64
2021/11/24 04:50:49;;;;;;;1.13;1.00;;;20.20;26.10;20.60;94190.00;;;;10258446;28;47036;-63
2021/11/24 04:55:50;;;;;;;1.00;0.90;;;20.20;26.00;20.60;94188.00;;;;10268289;28;45281;-62
2021/11/24 05:00:50;;;;;;;1.38;1.02;;;20.20;26.00;20.60;94205.00;;;;10267933;28;47432;-62
2021/11/24 05:05:51;;;;;;;1.30;0.95;;;20.20;26.00;20.60;94210.00;;;;10251439;28;46550;-62
2021/11/24 05:10:52;;;;;;;1.00;0.90;;;20.20;26.00;20.60;94198.00;;;;10267475;28;47341;-62
2021/11/24 05:15:57;;;;;;;1.23;0.95;;;20.20;26.00;20.70;94186.00;;;;10251330;28;48334;-61
2021/11/24 05:21:03;;;;;;;1.08;0.82;;;20.20;26.10;20.70;94189.00;;;;10268255;28;45446;-62
2021/11/24 05:26:05;;;;;;;1.35;1.00;;;20.30;26.10;20.70;94193.00;;;;10266876;28;46803;-61
2021/11/24 05:31:06;;;;;;;0.98;0.90;;;20.30;26.10;20.80;94194.00;;;;10259592;28;47056;-62
2021/11/24 05:36:07;;;;;;;1.02;0.85;;;20.30;26.10;20.80;94192.00;;;;10233806;28;45604;-62
2021/11/24 05:41:08;;;;;;;1.00;0.80;;;20.30;26.10;20.80;94188.00;;;;10233563;28;47183;-62
2021/11/24 05:51:14;;;;;;;1.00;0.90;;;20.40;26.00;20.80;94178.00;;;;10267497;28;45332;-62
2021/11/24 05:56:15;;;;;;;1.20;1.02;;;20.40;26.10;20.80;94183.00;;;;10273688;28;45540;-62
2021/11/24 06:01:15;;;;;;;0.90;0.70;;;20.40;26.10;20.90;94188.00;;;;10273263;28;45364;-62
2021/11/24 06:06:17;;;;;;;0.77;0.77;;;20.40;26.00;20.80;94178.00;;;;10256915;28;47309;-62
2021/11/24 06:11:17;;;;;;;1.20;0.90;;;20.40;26.00;20.90;94177.00;;;;10273119;28;45325;-62
2021/11/24 06:16:18;;;;;;;2.22;1.05;;;20.40;26.00;20.80;94186.00;;;;10272841;28;47048;-62
2021/11/24 06:21:22;;;;;;;1.77;0.95;;;20.50;25.90;20.80;94168.00;;;;10274379;28;46417;-63
2021/11/24 06:26:23;;;;;;;1.20;0.90;;;20.50;25.90;20.90;94178.00;;;;10273555;28;46444;-60
2021/11/24 06:31:26;;;;;;;0.70;0.65;;;20.50;26.00;20.90;94162.00;;;;10273095;28;45190;-61
2021/11/24 06:36:26;;;;;;;1.77;1.00;;;20.50;26.00;20.90;94170.00;;;;10273014;28;47302;-60
2021/11/24 06:41:27;;;;;;;1.30;1.00;;;20.50;25.80;20.90;94149.00;;;;10272434;28;46973;-61
2021/11/24 06:46:28;;;;;;;1.10;1.00;;;20.50;25.90;20.90;94155.00;;;;10272451;28;46592;-61
2021/11/24 06:51:29;;;;;;;1.02;0.90;;;20.50;26.00;20.90;94166.00;;;;10248096;28;47019;-61
2021/11/24 06:56:30;;;;;;;1.45;1.10;;;20.50;26.10;20.90;94158.00;;;;10248329;28;45392;-61
2021/11/24 07:01:31;;;;;;;1.15;0.90;;;20.50;25.90;21.00;94158.00;;;;10231841;28;47726;-61
2021/11/24 07:06:33;;;;;;;1.55;1.00;;;20.60;26.00;21.00;94145.00;;;;10248253;28;45418;-61
2021/11/24 07:11:33;;;;;;;0.70;0.70;;;20.60;26.00;21.00;94167.00;;;;10247463;28;46860;-60
2021/11/24 07:16:38;;;;;;;1.00;0.90;;;20.60;26.50;21.00;94164.00;;;;10247704;28;46692;-60
2021/11/24 07:21:40;;;;;;;1.20;0.90;;;20.60;26.00;21.00;94173.00;;;;10247272;28;46555;-61
2021/11/24 07:26:41;;;;;;;1.10;0.98;;;20.60;26.10;21.10;94162.00;;;;10231871;28;46358;-65
2021/11/24 07:31:42;;;;;;;1.17;1.05;;;20.60;26.20;21.10;94141.00;;;;10245443;28;45442;-63
2021/11/24 07:36:43;;;;;;;1.33;1.13;;;20.60;26.30;21.10;94134.00;;;;10229441;28;46861;-57
2021/11/24 07:41:43;;;;;;;1.52;1.20;;;20.70;26.30;20.90;94157.00;;;;10245581;28;45195;-60
2021/11/24 07:46:44;;;;;;;1.65;1.30;;;20.60;25.60;21.00;94150.00;;;;10231796;28;46996;-62
2021/11/24 07:51:45;;;;;;;1.70;1.27;;;20.60;26.00;21.10;94127.00;;;;10255583;28;46513;-60
2021/11/24 07:56:45;;;;;;;6.03;3.80;;;20.70;26.10;20.20;94149.00;;;;10245865;28;47547;-60
2021/11/24 08:01:46;;;;;;;3.03;1.70;;;20.50;24.30;20.70;94142.00;;;;10246138;28;46790;-59
2021/11/24 08:06:47;;;;;;;1.75;1.50;;;20.40;25.60;20.80;94144.00;;;;10245505;28;46318;-64
2021/11/24 08:11:47;;;;;;;1.40;1.20;;;20.40;25.70;20.90;94145.00;;;;10228433;28;47208;-65
2021/11/24 08:16:48;;;;;;;1.35;1.10;;;20.50;25.80;20.90;94131.00;;;;10244535;28;47121;-64
2021/11/24 08:21:49;;;;;;;1.27;1.15;;;20.50;26.00;20.80;94128.00;;;;10247618;28;47196;-61
2021/11/24 08:26:50;;;;;;;1.65;1.35;;;20.50;26.10;20.90;94118.00;;;;10268829;28;45401;-61
2021/11/24 08:31:51;;;;;;;2.08;1.00;;;20.50;25.90;20.90;94111.00;;;;10268719;28;46848;-61
2021/11/24 08:36:52;;;;;;;1.45;1.10;;;20.50;25.80;20.90;94115.00;;;;10268028;28;47851;-62
2021/11/24 08:41:53;;;;;;;1.40;1.05;;;20.50;25.90;20.90;94094.00;;;;10267567;28;48004;-61
2021/11/24 08:46:54;;;;;;;2.55;1.00;;;20.60;25.90;20.90;94108.00;;;;10268873;28;45246;-60
2021/11/24 08:51:54;;;;;;;2.33;1.40;;;20.60;25.90;20.90;94105.00;;;;10229712;28;45429;-60
2021/11/24 08:56:55;;;;;;;1.63;1.30;;;20.60;25.70;20.90;94099.00;;;;10244565;28;45204;-60
2021/11/24 09:01:56;;;;;;;1.35;0.98;;;20.60;25.80;20.90;94104.00;;;;10241835;28;45310;-61
2021/11/24 09:06:58;;;;;;;1.55;1.10;;;20.60;25.80;20.90;94098.00;;;;10234824;28;46753;-59
2021/11/24 09:11:58;;;;;;;1.48;1.10;;;20.60;25.80;20.90;94076.00;;;;10236765;28;45189;-60
2021/11/24 09:16:59;;;;;;;1.77;1.20;;;20.60;25.90;20.90;94091.00;;;;10236829;28;45565;-59
2021/11/24 09:22:00;;;;;;;1.65;1.33;;;20.60;25.70;20.90;94084.00;;;;10250363;28;46322;-59
2021/11/24 09:27:05;;;;;;;2.45;1.58;;;20.60;26.10;20.90;94083.00;;;;10235305;28;45992;-61
2021/11/24 09:32:06;;;;;;;1.92;1.40;;;20.60;27.00;21.00;94080.00;;;;10233472;28;45425;-59
2021/11/24 09:37:07;;;;;;;1.38;1.20;;;20.60;27.20;20.90;94085.00;;;;10226065;28;46145;-59
2021/11/24 09:42:10;;;;;;;2.65;1.30;;;20.60;27.90;21.00;94083.00;;;;10194032;28;48504;-64
2021/11/24 09:47:11;;;;;;;2.20;1.33;;;20.60;28.00;21.00;94064.00;;;;10210468;28;46743;-58
2021/11/24 09:52:12;;;;;;;1.77;1.27;;;20.60;27.80;21.00;94077.00;;;;10209949;28;45291;-59
2021/11/24 09:57:13;;;;;;;2.20;1.25;;;20.60;28.00;21.00;94069.00;;;;10210258;28;45510;-65
2021/11/24 10:02:15;;;;;;;1.88;1.30;;;20.60;28.10;21.00;94068.00;;;;10226416;28;46778;-64
2021/11/24 10:07:18;;;;;;;2.40;1.65;;;20.60;28.40;21.00;94053.00;;;;10209904;28;48292;-66
2021/11/24 10:12:19;;;;;;;1.45;1.20;;;20.60;28.00;21.00;94051.00;;;;10194442;28;45490;-66
2021/11/24 10:17:25;;;;;;;2.55;1.50;;;20.70;28.20;21.10;94048.00;;;;10207961;28;45317;-59
2021/11/24 10:22:27;;;;;;;2.85;2.00;;;20.70;28.20;21.00;94035.00;;;;10208088;28;47075;-58
2021/11/24 10:27:49;;;;;;;3.60;2.25;;;20.70;26.90;21.00;94038.00;;;;10246453;28;47023;-60
2021/11/24 10:32:50;;;;;;;4.13;1.90;;;20.60;27.70;20.90;94036.00;;;;10247816;28;45421;-65
2021/11/24 10:38:17;;;;;;;2.10;1.52;;;20.60;27.70;20.90;94037.00;;;;10245910;28;45303;-65
2021/11/24 10:43:18;;;;;;;1.80;1.27;;;20.60;28.10;20.90;94035.00;;;;10227825;28;47013;-66
2021/11/24 10:48:30;;;;;;;2.42;1.08;;;20.60;28.60;21.00;94019.00;;;;10243811;28;45497;-60
2021/11/24 10:53:30;;;;;;;1.45;1.10;;;20.60;28.40;21.00;94022.00;;;;10243286;28;45413;-68
2021/11/24 10:58:36;;;;;;;1.83;1.10;;;20.70;28.60;21.00;94009.00;;;;10226386;28;45423;-63
2021/11/24 11:03:43;;;;;;;2.45;1.23;;;20.70;28.40;20.90;94002.00;;;;10229078;28;45190;-63
2021/11/24 11:08:58;;;;;;;2.75;1.25;;;20.60;28.50;21.00;93996.00;;;;10246958;28;47060;-63
2021/11/24 11:14:20;;;;;;;1.67;1.05;;;20.60;28.50;20.90;93983.00;;;;10244383;28;47096;-63
2021/11/24 11:19:41;;;;;;;1.65;1.02;;;20.60;28.50;21.00;93978.00;;;;10229395;28;47000;-64
2021/11/24 11:24:42;;;;;;;1.48;1.13;;;20.60;28.60;21.00;93955.00;;;;10245506;28;47265;-65
2021/11/24 11:29:44;;;;;;;2.35;1.40;;;20.60;28.60;21.00;93958.00;;;;10232145;28;48129;-64
2021/11/24 11:34:45;;;;;;;1.20;1.00;;;20.60;28.50;21.00;93948.00;;;;10229153;28;46232;-61
2021/11/24 11:39:47;;;;;;;2.05;1.00;;;20.70;28.60;21.00;93936.00;;;;10229849;28;46134;-61
2021/11/24 11:44:48;;;;;;;0.98;0.80;;;20.70;28.60;21.00;93941.00;;;;10228943;28;46120;-61
2021/11/24 11:49:49;;;;;;;1.45;1.02;;;20.70;28.70;21.00;93931.00;;;;10250585;28;45353;-61
2021/11/24 11:54:49;;;;;;;1.10;0.88;;;20.70;28.70;21.00;93919.00;;;;10229165;28;45530;-61
2021/11/24 12:00:02;;;;;;;1.40;0.80;;;20.60;28.90;21.00;93906.00;;;;10236501;28;45627;-61
2021/11/24 12:05:05;;;;;;;1.20;0.88;;;20.60;28.70;21.00;93895.00;;;;10239979;28;47394;-60
2021/11/24 12:10:07;;;;;;;1.30;0.90;;;20.70;28.80;21.00;93888.00;;;;10243921;28;48049;-61
2021/11/24 12:15:28;;;;;;;1.30;1.00;;;20.70;29.20;21.00;93885.00;;;;10228331;28;47512;-61
2021/11/24 12:20:37;;;;;;;1.40;0.80;;;20.70;29.40;21.00;93898.00;;;;10220890;28;46199;-61
2021/11/24 12:25:39;;;;;;;1.35;0.93;;;20.60;29.60;21.00;93868.00;;;;10224462;28;47954;-61
2021/11/24 12:35:52;;;;;;;0.80;0.80;;;20.60;29.70;21.00;93866.00;;;;10219133;28;45254;-60
2021/11/24 12:40:56;;;;;;;1.30;1.00;;;20.70;29.80;21.00;93860.00;;;;10205311;28;45340;-60
2021/11/24 12:45:59;;;;;;;1.40;0.90;;;20.60;29.80;21.00;93850.00;;;;10124704;28;68267;-61
2021/11/24 12:51:03;;;;;;;1.40;0.93;;;20.60;29.80;21.00;93847.00;;;;10268669;28;48096;-61
2021/11/24 12:56:08;;;;;;;1.38;1.02;;;20.70;29.80;21.00;93844.00;;;;10265765;28;46252;-61
2021/11/24 13:01:21;;;;;;;1.35;1.02;;;20.70;29.80;21.00;93846.00;;;;10266429;28;45963;-60
2021/11/24 13:06:22;;;;;;;2.92;1.20;;;20.70;29.80;21.00;93847.00;;;;10332598;28;47450;-61
2021/11/24 13:11:25;;;;;;;1.20;0.90;;;20.70;29.70;21.00;93844.00;;;;10332211;28;45212;-60
2021/11/24 13:16:26;;;;;;;2.00;1.48;;;20.70;29.70;21.10;93841.00;;;;10294406;28;48014;-64
2021/11/24 13:21:27;;;;;;;2.25;1.55;;;20.70;28.10;20.90;93849.00;;;;10289170;28;47160;-64
2021/11/24 13:26:29;;;;;;;2.92;2.15;;;20.70;26.60;20.90;93848.00;;;;10275685;28;46271;-59
2021/11/24 13:31:30;;;;;;;6.00;3.42;;;20.60;26.70;20.90;93838.00;;;;10290616;28;45476;-59
2021/11/24 13:36:31;;;;;;;6.13;3.60;;;20.50;26.50;20.90;93827.00;;;;10290201;28;45606;-59
2021/11/24 13:41:36;;;;;;;5.45;3.28;;;20.50;26.60;20.90;93837.00;;;;10305376;28;47117;-59
2021/11/24 13:46:48;;;;;;;4.82;2.90;;;20.50;26.50;20.90;93831.00;;;;10290346;28;45518;-59
2021/11/24 13:52:10;;;;;;;3.55;2.13;;;20.50;26.70;20.80;93831.00;;;;10326986;28;46022;-59
2021/11/24 13:57:14;;;;;;;2.75;1.80;;;20.50;27.50;20.90;93832.00;;;;10313434;28;46149;-59
2021/11/24 14:02:27;;;;;;;2.33;1.55;;;20.50;27.20;20.90;93832.00;;;;10329031;28;45296;-59
2021/11/24 14:07:40;;;;;;;2.75;1.65;;;20.50;27.50;20.90;93804.00;;;;10308033;28;45581;-59
2021/11/24 14:12:41;;;;;;;2.05;1.20;;;20.50;27.60;21.00;93790.00;;;;10309495;28;46775;-59
2021/11/24 14:17:53;;;;;;;2.63;1.20;;;20.60;27.80;21.00;93799.00;;;;10312690;28;46369;-59
2021/11/24 14:23:03;;;;;;;3.97;1.77;;;20.60;27.90;21.00;93799.00;;;;10311862;28;45364;-59
2021/11/24 14:28:17;;;;;;;6.88;2.35;;;20.60;28.00;21.00;93779.00;;;;10326694;28;45237;-59
2021/11/24 14:33:23;;;;;;;6.22;2.40;;;20.60;28.00;21.00;93791.00;;;;10297336;28;45320;-60
2021/11/24 14:38:24;;;;;;;6.18;2.70;;;20.60;28.10;21.00;93772.00;;;;10285632;28;45395;-60
2021/11/24 14:43:25;;;;;;;6.05;2.53;;;20.60;28.10;21.00;93788.00;;;;10285616;28;45363;-60
2021/11/24 14:48:25;;;;;;;4.57;2.17;;;20.60;28.10;21.00;93776.00;;;;10312620;28;47468;-58
2021/11/24 14:53:26;;;;;;;5.47;2.03;;;20.60;28.10;21.00;93789.00;;;;10311106;28;45403;-60
2021/11/24 14:58:31;;;;;;;5.30;2.00;;;20.60;28.00;21.10;93785.00;;;;10286137;28;48180;-59
2021/11/24 15:03:32;;;;;;;5.15;2.20;;;20.70;28.10;21.10;93788.00;;;;10301327;28;47690;-60
2021/11/24 15:08:33;;;;;;;4.43;2.25;;;20.70;28.00;21.10;93778.00;;;;10301449;28;46972;-60
2021/11/24 15:13:35;;;;;;;5.82;2.28;;;20.70;28.00;21.10;93769.00;;;;10303094;28;47077;-60
2021/11/24 15:18:35;;;;;;;4.03;1.85;;;20.70;28.00;21.10;93766.00;;;;10302909;28;47278;-59
2021/11/24 15:23:36;;;;;;;4.00;2.00;;;20.70;28.00;21.10;93763.00;;;;10302849;28;48271;-64
2021/11/24 15:28:38;;;;;;;3.53;1.90;;;20.70;28.20;21.10;93758.00;;;;10271139;28;47311;-67
2021/11/24 15:33:39;;;;;;;4.45;1.98;;;20.80;28.30;21.10;93751.00;;;;10287519;28;45488;-66
2021/11/24 15:38:40;;;;;;;5.30;2.08;;;20.80;28.30;21.20;93741.00;;;;10287501;28;45308;-62
2021/11/24 15:43:41;;;;;;;4.50;2.65;;;20.80;28.40;21.10;93742.00;;;;10301940;28;47334;-62
2021/11/24 15:48:44;;;;;;;7.20;3.35;;;20.80;26.60;21.10;93723.00;;;;10282241;28;48219;-61
2021/11/24 15:53:46;;;;;;;8.27;4.82;;;20.70;26.00;21.10;93741.00;;;;10326060;28;45245;-60
2021/11/24 15:58:47;;;;;;;7.00;4.40;;;20.60;26.00;21.00;93724.00;;;;10319121;28;45338;-60
2021/11/24 16:03:48;;;;;;;6.55;4.28;;;20.60;26.40;21.00;93716.00;;;;10286009;28;46252;-63
2021/11/24 16:08:50;;;;;;;6.38;3.55;;;20.60;25.80;21.00;93709.00;;;;10270864;28;45103;-59
2021/11/24 16:13:51;;;;;;;5.38;3.00;;;20.60;25.70;21.10;93718.00;;;;10268693;28;48184;-62
2021/11/24 16:18:52;;;;;;;4.50;2.22;;;20.60;26.60;21.30;93710.00;;;;10269485;28;46992;-63
2021/11/24 16:23:52;;;;;;;5.18;2.00;;;20.80;27.00;21.30;93697.00;;;;10269942;28;48065;-68
2021/11/24 16:28:53;;;;;;;2.90;1.75;;;20.90;27.30;21.40;93699.00;;;;10269846;28;47458;-66
2021/11/24 16:33:54;;;;;;;3.75;1.90;;;20.90;27.60;21.50;93672.00;;;;10285628;28;45647;-64
2021/11/24 16:38:58;;;;;;;2.63;1.65;;;21.00;27.70;21.40;93671.00;;;;10268373;28;48469;-63
2021/11/24 16:44:00;;;;;;;2.33;1.70;;;21.00;28.10;21.40;93668.00;;;;10268826;28;47167;-64
2021/11/24 16:49:01;;;;;;;3.33;1.60;;;21.00;27.70;21.50;93665.00;;;;10284773;28;45351;-63
2021/11/24 16:54:03;;;;;;;2.13;1.45;;;21.10;27.80;21.50;93650.00;;;;10269538;28;45582;-64
2021/11/24 16:59:06;;;;;;;4.53;1.92;;;21.10;28.00;21.50;93657.00;;;;10268842;28;47304;-66
2021/11/24 17:04:08;;;;;;;4.05;1.70;;;21.10;27.90;21.50;93653.00;;;;10267623;28;46856;-65
2021/11/24 17:09:08;;;;;;;3.63;1.65;;;21.10;27.90;21.50;93637.00;;;;10267005;28;47362;-64
2021/11/24 17:14:09;;;;;;;2.58;1.48;;;21.10;28.00;21.50;93636.00;;;;10284059;28;46684;-62
2021/11/24 17:19:10;;;;;;;1.95;1.40;;;21.10;27.90;21.50;93635.00;;;;10283724;28;47024;-63
2021/11/24 17:24:11;;;;;;;3.33;1.70;;;21.10;28.40;21.50;93631.00;;;;10283974;28;45339;-61
2021/11/24 17:29:12;;;;;;;2.65;1.48;;;21.10;28.30;21.50;93638.00;;;;10292136;28;45374;-63
2021/11/24 17:34:13;;;;;;;2.95;1.92;;;21.10;28.30;21.50;93624.00;;;;10276048;28;45339;-63
2021/11/24 17:39:15;;;;;;;3.33;1.98;;;21.10;28.30;21.50;93615.00;;;;10274761;28;46717;-59
2021/11/24 17:44:16;;;;;;;3.17;2.03;;;21.10;28.10;21.50;93624.00;;;;10288930;28;45342;-58
2021/11/24 17:49:17;;;;;;;8.02;4.00;;;21.10;27.90;21.40;93607.00;;;;10289247;28;45178;-59
2021/11/24 17:54:18;;;;;;;6.43;2.65;;;21.00;26.20;21.30;93607.00;;;;10288989;28;45388;-58
2021/11/24 17:59:20;;;;;;;4.68;2.83;;;21.00;26.90;21.30;93603.00;;;;10278451;28;45347;-58
2021/11/24 18:04:21;;;;;;;4.15;2.55;;;20.90;27.00;21.30;93601.00;;;;10306675;28;45288;-58
2021/11/24 18:09:22;;;;;;;4.20;2.42;;;20.90;27.10;21.30;93581.00;;;;10272378;28;46193;-58
2021/11/24 18:14:22;;;;;;;4.93;2.35;;;20.90;27.00;21.30;93587.00;;;;10303282;28;46159;-58
2021/11/24 18:19:23;;;;;;;5.03;2.40;;;20.90;27.10;21.30;93578.00;;;;10312960;28;47028;-61
2021/11/24 18:24:24;;;;;;;2.78;2.03;;;20.90;27.10;21.40;93583.00;;;;10328943;28;45377;-59
2021/11/24 18:29:26;;;;;;;3.28;2.40;;;20.90;27.30;21.30;93571.00;;;;10328871;28;46329;-59
2021/11/24 18:34:26;;;;;;;3.15;2.13;;;20.90;27.20;21.30;93566.00;;;;10289668;28;45432;-61
2021/11/24 18:39:27;;;;;;;4.70;2.20;;;20.90;27.20;21.30;93569.00;;;;10288231;28;46500;-61
2021/11/24 18:44:28;;;;;;;5.05;2.40;;;20.90;27.10;21.30;93542.00;;;;10288518;28;45413;-59
2021/11/24 18:49:28;;;;;;;4.28;2.42;;;20.90;27.20;21.30;93547.00;;;;10307763;28;45271;-60
2021/11/24 18:54:33;;;;;;;4.28;2.30;;;20.90;27.00;21.20;93534.00;;;;10314829;28;45657;-59
2021/11/24 18:59:33;;;;;;;4.80;2.50;;;20.90;27.10;21.20;93539.00;;;;10271132;28;46493;-60
2021/11/24 19:04:34;;;;;;;6.65;2.40;;;20.90;27.10;21.30;93533.00;;;;10261295;28;45897;-59
2021/11/24 19:09:36;;;;;;;3.97;2.30;;;20.90;26.90;21.30;93544.00;;;;10328164;28;45228;-61
2021/11/24 19:14:38;;;;;;;4.72;2.25;;;20.90;26.90;21.30;93528.00;;;;10274727;28;45513;-59
2021/11/24 19:19:39;;;;;;;4.47;2.10;;;20.90;27.00;21.30;93537.00;;;;10271411;28;47038;-62
2021/11/24 19:24:39;;;;;;;5.10;2.45;;;20.90;26.90;21.30;93534.00;;;;10270065;28;46982;-60
2021/11/24 19:29:42;;;;;;;3.42;1.95;;;20.90;26.90;21.20;93515.00;;;;10270099;28;47375;-60
2021/11/24 19:34:42;;;;;;;4.65;2.45;;;20.90;26.70;21.30;93514.00;;;;10317764;28;47988;-59
2021/11/24 19:39:44;;;;;;;3.63;2.00;;;20.90;26.80;21.40;93505.00;;;;10266689;28;45475;-59
2021/11/24 19:44:45;;;;;;;5.13;2.05;;;20.90;27.50;21.40;93514.00;;;;10283511;28;45305;-59
2021/11/24 19:49:45;;;;;;;3.63;1.90;;;20.90;26.80;21.40;93518.00;;;;10293037;28;45407;-59
2021/11/24 19:54:46;;;;;;;4.88;2.17;;;20.90;26.80;21.40;93499.00;;;;10327557;28;47603;-59
2021/11/24 19:59:47;;;;;;;5.03;2.20;;;21.00;26.90;21.40;93512.00;;;;10310652;28;47263;-60
2021/11/24 20:04:48;;;;;;;4.00;2.13;;;21.00;26.90;21.40;93489.00;;;;10326874;28;45309;-60
2021/11/24 20:09:48;;;;;;;3.00;2.00;;;21.00;27.00;21.40;93495.00;;;;10310102;28;47250;-60
2021/11/24 20:14:49;;;;;;;3.70;1.83;;;21.00;27.00;21.40;93494.00;;;;10310838;28;45376;-61
2021/11/24 20:19:51;;;;;;;3.20;1.95;;;21.00;27.10;21.40;93499.00;;;;10326841;28;45356;-59
2021/11/24 20:24:51;;;;;;;3.30;1.73;;;21.00;27.00;21.50;93491.00;;;;10301052;28;45412;-64
2021/11/24 20:29:52;;;;;;;2.40;1.50;;;21.00;27.20;21.70;93481.00;;;;10271352;28;45370;-64
2021/11/24 20:34:53;;;;;;;2.35;1.35;;;21.20;27.10;21.80;93481.00;;;;10269311;28;45238;-64
2021/11/24 20:39:53;;;;;;;2.67;1.30;;;21.30;27.00;21.90;93456.00;;;;10268870;28;47803;-65
2021/11/24 20:44:54;;;;;;;2.88;1.30;;;21.40;26.90;22.00;93458.00;;;;10268731;28;47017;-65
2021/11/24 20:49:55;;;;;;;2.42;1.50;;;21.40;27.00;22.00;93450.00;;;;10293250;28;45248;-64
2021/11/24 20:54:56;;;;;;;2.65;1.20;;;21.50;26.90;22.10;93444.00;;;;10326310;28;45563;-64
2021/11/24 20:59:57;;;;;;;2.05;1.30;;;21.60;26.90;22.10;93455.00;;;;10328445;28;48120;-64
2021/11/24 21:04:58;;;;;;;2.35;1.25;;;21.60;26.90;22.20;93451.00;;;;10332924;28;45310;-65
2021/11/24 21:09:58;;;;;;;2.38;1.10;;;21.60;26.90;22.20;93432.00;;;;10293421;28;45988;-64
2021/11/24 21:14:59;;;;;;;2.75;1.40;;;21.70;27.00;22.20;93448.00;;;;10275535;28;47059;-65
2021/11/24 21:20:00;;;;;;;2.42;1.20;;;21.70;26.90;22.20;93433.00;;;;10275329;28;47930;-65
2021/11/24 21:25:05;;;;;;;1.60;1.10;;;21.70;27.00;22.10;93432.00;;;;10275615;28;45592;-64
2021/11/24 21:30:08;;;;;;;1.98;1.25;;;21.70;27.00;22.10;93434.00;;;;10275561;28;46042;-65
2021/11/24 21:35:10;;;;;;;2.55;1.30;;;21.60;26.90;22.10;93419.00;;;;10275149;28;46016;-65
2021/11/24 21:40:12;;;;;;;1.92;1.13;;;21.60;27.00;22.00;93404.00;;;;10275192;28;47483;-65
2021/11/24 21:45:17;;;;;;;1.38;1.10;;;21.50;27.00;22.00;93410.00;;;;10274302;28;45425;-64
2021/11/24 21:50:19;;;;;;;1.90;1.20;;;21.50;27.10;21.90;93402.00;;;;10297604;28;47956;-65
2021/11/24 21:55:22;;;;;;;1.88;1.10;;;21.50;27.20;21.90;93380.00;;;;10328219;28;45178;-65
2021/11/24 22:00:24;;;;;;;1.90;1.10;;;21.40;27.20;21.90;93388.00;;;;10314678;28;45283;-64
2021/11/24 22:05:29;;;;;;;2.53;1.25;;;21.40;27.20;21.90;93374.00;;;;10330744;28;46250;-65
2021/11/24 22:15:59;;;;;;;1.95;1.30;;;21.40;27.20;21.90;93361.00;;;;10322505;28;45588;-66
2021/11/24 22:20:59;;;;;;;1.75;1.30;;;21.40;27.30;21.90;93375.00;;;;10289464;28;45327;-64
2021/11/24 22:26:00;;;;;;;1.83;1.15;;;21.40;27.20;21.80;93364.00;;;;10305183;28;46925;-64